Terminal Aerodrome Forecast
Issued by NWS Grand Rapids, MI

Home | Current Version | Previous Version | Text Only | Print | Product List | Glossary On
Versions: 1 2 3 4 5 6 7 8 9 10 11 12 13 14
000
FTUS43 KGRR 281700
TAFGRR
TAF
KGRR 281740Z 2818/2918 16010KT P6SM BKN150
     FM290200 16013KT P6SM OVC035 WS020/18050KT
     FM290700 16017G25KT 3SM -FZRAPL BR OVC012 WS020/20050KT
     FM290900 17012G22KT 2SM -FZRAPL OVC009
     FM291300 21010G20KT 1SM -SNPL OVC009
     FM291600 30015G25KT 1SM -SNPL OVC009=

USA.gov is the U.S. government's official web portal to all federal, state and local government web resources and services.